createdAt,value
2022-11-09T00:01:03.532Z,99070.28
2022-11-09T00:03:30.126Z,99077.16
2022-11-09T00:05:58.822Z,99078.34
2022-11-09T00:08:25.884Z,99075.59
2022-11-09T00:10:52.448Z,99082.50
2022-11-09T00:13:19.277Z,99077.03
2022-11-09T00:15:46.047Z,99076.53
2022-11-09T00:18:12.592Z,99079.22
2022-11-09T00:20:44.536Z,99085.00
2022-11-09T00:23:13.717Z,99081.63
2022-11-09T00:25:40.468Z,99078.25
2022-11-09T00:28:07.061Z,99069.31
2022-11-09T00:30:33.675Z,99077.25
2022-11-09T00:33:00.198Z,99079.41
2022-11-09T00:35:27.355Z,99076.25
2022-11-09T00:37:54.641Z,99075.78
2022-11-09T00:40:21.280Z,99079.22
2022-11-09T00:42:47.822Z,99079.72
2022-11-09T00:45:14.483Z,99078.69
2022-11-09T00:47:41.074Z,99070.34
2022-11-09T00:50:08.241Z,99072.00
2022-11-09T00:52:34.774Z,99066.72
2022-11-09T00:55:01.360Z,99067.13
2022-11-09T00:57:27.904Z,99066.28
2022-11-09T00:59:54.512Z,99067.47
2022-11-09T01:02:21.136Z,99062.34
2022-11-09T01:04:47.706Z,99068.09
2022-11-09T01:07:14.340Z,99066.72
2022-11-09T01:09:40.907Z,99059.31
2022-11-09T01:12:07.508Z,99057.94
2022-11-09T01:14:34.063Z,99055.44
2022-11-09T01:17:00.653Z,99065.44
2022-11-09T01:19:27.264Z,99064.97
2022-11-09T01:21:53.809Z,99065.97
2022-11-09T01:24:20.361Z,99068.28
2022-11-09T01:26:46.979Z,99065.91
2022-11-09T01:29:13.529Z,99071.59
2022-11-09T01:31:40.114Z,99065.91
2022-11-09T01:34:06.710Z,99063.72
2022-11-09T01:36:33.294Z,99071.19
2022-11-09T01:39:00.659Z,99067.97
2022-11-09T01:41:29.101Z,99062.28
2022-11-09T01:44:06.414Z,99065.75
2022-11-09T01:47:07.214Z,99059.03
2022-11-09T01:49:41.089Z,99066.47
2022-11-09T01:52:19.895Z,99067.31
2022-11-09T01:54:50.878Z,99062.16
2022-11-09T01:57:24.396Z,99056.50
2022-11-09T01:59:55.330Z,99053.78
2022-11-09T02:02:22.613Z,99061.13
2022-11-09T02:04:56.506Z,99059.00
2022-11-09T02:07:23.456Z,99059.00
2022-11-09T02:10:03.044Z,99056.53
2022-11-09T02:12:33.621Z,99050.28
2022-11-09T02:15:02.964Z,99056.41
2022-11-09T02:17:30.479Z,99051.38
2022-11-09T02:19:58.764Z,99060.53
2022-11-09T02:22:25.512Z,99062.72
2022-11-09T02:24:56.279Z,99060.56
2022-11-09T02:27:24.272Z,99057.53
2022-11-09T02:29:52.768Z,99057.22
2022-11-09T02:32:22.654Z,99053.19
2022-11-09T02:34:49.235Z,99058.75
2022-11-09T02:37:30.778Z,99051.72
2022-11-09T02:40:00.009Z,99055.78
2022-11-09T02:42:26.701Z,99058.78
2022-11-09T02:44:58.423Z,99058.28
2022-11-09T02:47:25.238Z,99060.50
2022-11-09T02:49:52.063Z,99058.31
2022-11-09T02:52:19.013Z,99062.56
2022-11-09T02:54:46.132Z,99057.16
2022-11-09T02:57:12.714Z,99054.97
2022-11-09T02:59:39.282Z,99058.03
2022-11-09T03:02:05.926Z,99067.16
2022-11-09T03:04:32.848Z,99067.66
2022-11-09T03:06:59.450Z,99076.75
2022-11-09T03:09:26.033Z,99080.97
2022-11-09T03:11:52.561Z,99071.00
2022-11-09T03:14:19.146Z,99078.09
2022-11-09T03:16:50.184Z,99071.84
2022-11-09T03:19:17.418Z,99074.06
2022-11-09T03:21:43.981Z,99077.47
2022-11-09T03:24:10.565Z,99078.28
2022-11-09T03:26:37.178Z,99077.13
2022-11-09T03:29:03.754Z,99072.56
2022-11-09T03:31:30.292Z,99073.06
2022-11-09T03:33:56.859Z,99078.28
2022-11-09T03:36:23.417Z,99073.94
2022-11-09T03:38:49.957Z,99072.22
2022-11-09T03:41:16.514Z,99077.28
2022-11-09T03:43:43.080Z,99067.69
2022-11-09T03:46:09.661Z,99075.59
2022-11-09T03:48:36.259Z,99072.75
2022-11-09T03:51:02.817Z,99073.06
2022-11-09T03:53:29.431Z,99080.81
2022-11-09T03:55:57.793Z,99069.19
2022-11-09T03:58:24.371Z,99075.94
2022-11-09T04:00:50.928Z,99071.03
2022-11-09T04:03:17.753Z,99071.72
2022-11-09T04:05:44.571Z,99069.69
2022-11-09T04:08:11.097Z,99075.75
2022-11-09T04:10:37.669Z,99075.75
2022-11-09T04:13:04.260Z,99079.31
2022-11-09T04:15:30.864Z,99082.50
2022-11-09T04:18:02.256Z,99077.75
2022-11-09T04:20:30.454Z,99077.25
2022-11-09T04:22:58.938Z,99081.50
2022-11-09T04:25:26.508Z,99080.47
2022-11-09T04:27:57.620Z,99078.59
2022-11-09T04:30:25.214Z,99078.09
2022-11-09T04:32:51.819Z,99082.66
2022-11-09T04:35:18.385Z,99078.28
2022-11-09T04:37:52.368Z,99082.81
2022-11-09T04:40:18.947Z,99078.78
2022-11-09T04:42:45.472Z,99073.19
2022-11-09T04:45:12.042Z,99078.78
2022-11-09T04:47:38.594Z,99080.63
2022-11-09T04:50:05.845Z,99084.31
2022-11-09T04:52:32.389Z,99084.16
2022-11-09T04:54:58.960Z,99090.41
2022-11-09T04:57:25.556Z,99087.38
2022-11-09T04:59:52.088Z,99092.56
2022-11-09T05:02:18.702Z,99092.06
2022-11-09T05:04:45.276Z,99101.50
2022-11-09T05:07:11.906Z,99099.81
2022-11-09T05:09:38.478Z,99106.84
2022-11-09T05:12:05.282Z,99100.13
2022-11-09T05:14:31.845Z,99103.50
2022-11-09T05:16:58.409Z,99117.47
2022-11-09T05:19:24.994Z,99108.53
2022-11-09T05:21:51.576Z,99121.88
2022-11-09T05:24:18.153Z,99121.22
2022-11-09T05:26:44.740Z,99120.06
2022-11-09T05:29:13.236Z,99127.97
2022-11-09T05:31:40.336Z,99132.88
2022-11-09T05:34:07.570Z,99132.88
2022-11-09T05:36:34.180Z,99136.78
2022-11-09T05:39:00.957Z,99137.78
2022-11-09T05:41:28.106Z,99144.69
2022-11-09T05:43:54.878Z,99144.03
2022-11-09T05:46:21.477Z,99144.88
2022-11-09T05:48:48.051Z,99151.78
2022-11-09T05:51:15.669Z,99149.63
2022-11-09T05:53:46.450Z,99149.28
2022-11-09T05:56:14.753Z,99154.41
2022-11-09T05:58:42.171Z,99156.72
2022-11-09T06:01:12.278Z,99157.25
2022-11-09T06:03:40.386Z,99159.94
2022-11-09T06:06:09.062Z,99165.72
2022-11-09T06:08:36.142Z,99164.50
2022-11-09T06:11:08.715Z,99172.50
2022-11-09T06:13:36.125Z,99173.13
2022-11-09T06:16:05.265Z,99171.97
2022-11-09T06:18:33.892Z,99176.88
2022-11-09T06:21:02.450Z,99173.00
2022-11-09T06:23:30.251Z,99173.50
2022-11-09T06:25:58.269Z,99183.09
2022-11-09T06:28:25.294Z,99187.19
2022-11-09T06:30:52.125Z,99181.66
2022-11-09T06:33:19.011Z,99181.81
2022-11-09T06:35:45.791Z,99178.09
2022-11-09T06:38:12.403Z,99189.44
2022-11-09T06:40:39.341Z,99192.81
2022-11-09T06:43:06.394Z,99186.72
2022-11-09T06:45:33.967Z,99187.47
2022-11-09T06:48:02.779Z,99189.13
2022-11-09T06:50:32.037Z,99189.31
2022-11-09T06:53:00.581Z,99187.06
2022-11-09T06:55:28.499Z,99188.56
2022-11-09T06:57:55.643Z,99185.56
2022-11-09T07:00:23.552Z,99188.28
2022-11-09T07:02:50.650Z,99184.41
2022-11-09T07:05:17.259Z,99184.44
2022-11-09T07:07:43.947Z,99191.19
2022-11-09T07:10:11.192Z,99186.13
2022-11-09T07:12:37.900Z,99182.38
2022-11-09T07:15:05.401Z,99185.09
2022-11-09T07:17:33.811Z,99190.34
2022-11-09T07:20:00.870Z,99181.38
2022-11-09T07:22:27.909Z,99185.44
2022-11-09T07:24:55.750Z,99184.59
2022-11-09T07:27:27.482Z,99179.34
2022-11-09T07:29:54.625Z,99182.03
2022-11-09T07:32:27.394Z,99179.50
2022-11-09T07:35:07.943Z,99178.66
2022-11-09T07:37:34.623Z,99175.97
2022-11-09T07:40:01.180Z,99175.09
2022-11-09T07:42:27.866Z,99178.97
2022-11-09T07:44:54.450Z,99178.56
2022-11-09T07:47:21.081Z,99182.28
2022-11-09T07:49:47.737Z,99188.34
2022-11-09T07:52:14.320Z,99197.78
2022-11-09T07:54:40.982Z,99192.19
2022-11-09T07:57:07.692Z,99189.28
2022-11-09T07:59:34.301Z,99192.53
2022-11-09T08:02:01.022Z,99193.91
2022-11-09T08:04:27.692Z,99190.66
2022-11-09T08:06:54.737Z,99194.50
2022-11-09T08:09:21.386Z,99201.72
2022-11-09T08:11:47.928Z,99194.88
2022-11-09T08:14:14.534Z,99190.25
2022-11-09T08:16:41.085Z,99196.63
2022-11-09T08:19:09.603Z,99194.94
2022-11-09T08:21:37.376Z,99193.22
2022-11-09T08:24:05.756Z,99196.00
2022-11-09T08:26:33.210Z,99195.59
2022-11-09T08:28:59.822Z,99198.72
2022-11-09T08:31:26.505Z,99190.47
2022-11-09T08:33:53.107Z,99206.31
2022-11-09T08:36:19.866Z,99195.88
2022-11-09T08:38:46.453Z,99211.69
2022-11-09T08:41:14.463Z,99201.19
2022-11-09T08:43:41.348Z,99212.91
2022-11-09T08:46:08.033Z,99213.25
2022-11-09T08:48:34.645Z,99213.16
2022-11-09T08:51:01.265Z,99212.06
2022-11-09T08:53:29.614Z,99217.25
2022-11-09T08:55:56.848Z,99217.81
2022-11-09T08:58:23.784Z,99215.78
2022-11-09T09:00:50.478Z,99215.59
2022-11-09T09:03:17.296Z,99216.13
2022-11-09T09:05:43.918Z,99224.69
2022-11-09T09:08:12.915Z,99221.91
2022-11-09T09:10:40.508Z,99221.78
2022-11-09T09:13:07.659Z,99220.25
2022-11-09T09:15:34.316Z,99215.53
2022-11-09T09:18:02.199Z,99216.69
2022-11-09T09:20:28.888Z,99214.56
2022-11-09T09:22:59.213Z,99218.28
2022-11-09T09:25:27.248Z,99214.47
2022-11-09T09:27:54.022Z,99202.63
2022-11-09T09:30:20.696Z,99204.47
2022-11-09T09:32:47.303Z,99208.06
2022-11-09T09:35:13.908Z,99208.06
2022-11-09T09:37:40.580Z,99212.34
2022-11-09T09:40:07.693Z,99203.97
2022-11-09T09:42:43.443Z,99196.28
2022-11-09T09:45:15.374Z,99197.91
2022-11-09T09:48:14.907Z,99196.97
2022-11-09T09:50:50.668Z,99194.91
2022-11-09T09:54:09.696Z,99207.38
2022-11-09T09:56:41.074Z,99192.97
2022-11-09T09:59:10.623Z,99190.44
2022-11-09T10:01:42.017Z,99183.50
2022-11-09T10:04:41.506Z,99186.25
2022-11-09T10:07:28.334Z,99173.66
2022-11-09T10:10:09.976Z,99184.06
2022-11-09T10:12:45.889Z,99188.03
2022-11-09T10:15:18.380Z,99177.88
2022-11-09T10:18:06.658Z,99171.34
2022-11-09T10:20:52.940Z,99186.59
2022-11-09T10:23:49.339Z,99185.63
2022-11-09T10:26:23.872Z,99174.03
2022-11-09T10:31:46.626Z,99176.44
2022-11-09T10:34:34.257Z,99172.59
2022-11-09T10:37:10.693Z,99171.81
2022-11-09T10:39:49.627Z,99165.91
2022-11-09T10:42:16.232Z,99168.47
2022-11-09T10:44:42.840Z,99158.16
2022-11-09T10:47:19.119Z,99150.84
2022-11-09T10:49:45.787Z,99149.28
2022-11-09T10:52:31.007Z,99147.19
2022-11-09T10:55:37.025Z,99141.34
2022-11-09T10:58:19.444Z,99150.91
2022-11-09T11:01:03.412Z,99136.72
2022-11-09T11:03:34.123Z,99133.22
2022-11-09T11:06:23.628Z,99128.03
2022-11-09T11:09:10.411Z,99127.13
2022-11-09T11:11:39.149Z,64599.88
2022-11-09T11:14:17.135Z,64599.88
2022-11-09T11:16:48.509Z,64599.88
2022-11-09T11:19:41.448Z,64599.88
2022-11-09T11:22:20.389Z,64599.88
2022-11-09T11:25:01.726Z,64599.88
2022-11-09T11:27:50.452Z,64599.88
2022-11-09T11:30:31.676Z,64599.88
2022-11-09T11:32:58.718Z,64599.88
2022-11-09T11:35:38.383Z,64599.88
2022-11-09T11:38:09.697Z,64599.88
2022-11-09T11:41:01.929Z,64599.88
2022-11-09T11:43:34.385Z,64599.88
2022-11-09T11:46:38.818Z,64599.88
2022-11-09T11:49:27.526Z,64599.88
2022-11-09T11:52:30.801Z,64599.88
2022-11-09T11:55:34.803Z,64599.88
2022-11-09T11:58:23.015Z,64599.88
2022-11-09T12:01:16.401Z,64599.88
2022-11-09T12:04:06.591Z,64599.88
2022-11-09T12:06:39.687Z,64599.88
2022-11-09T12:09:26.429Z,64599.88
2022-11-09T12:12:11.204Z,64599.88
2022-11-09T12:14:51.773Z,99059.16
2022-11-09T12:17:54.738Z,99057.88
2022-11-09T12:20:44.951Z,99049.44
2022-11-09T12:23:25.883Z,99047.44
2022-11-09T12:26:01.324Z,99043.28
2022-11-09T12:28:44.196Z,99041.94
2022-11-09T12:31:28.244Z,99035.38
2022-11-09T12:34:27.037Z,99043.97
2022-11-09T12:37:15.269Z,99054.03
2022-11-09T12:39:46.912Z,99049.34
2022-11-09T12:42:19.239Z,99042.53
2022-11-09T12:45:12.228Z,99045.91
2022-11-09T12:47:43.395Z,99042.63
2022-11-09T12:50:18.539Z,99040.53
2022-11-09T12:52:47.527Z,99036.91
2022-11-09T12:55:21.523Z,99033.22
2022-11-09T12:57:48.548Z,99030.25
2022-11-09T13:00:33.793Z,99033.84
2022-11-09T13:03:06.785Z,99027.16
2022-11-09T13:05:37.656Z,99028.56
2022-11-09T13:08:17.668Z,99024.63
2022-11-09T13:10:44.371Z,99030.63
2022-11-09T13:13:10.901Z,99032.13
2022-11-09T13:15:39.573Z,99034.19
2022-11-09T13:18:24.622Z,99032.97
2022-11-09T13:20:55.887Z,99028.00
2022-11-09T13:23:47.561Z,99025.22
2022-11-09T13:26:32.614Z,99023.31
2022-11-09T13:29:23.964Z,99028.91
2022-11-09T13:32:09.025Z,99026.56
2022-11-09T13:34:48.949Z,99025.63
2022-11-09T13:37:46.878Z,99024.56
2022-11-09T13:40:31.575Z,99028.31
2022-11-09T13:43:01.148Z,99019.44
2022-11-09T13:45:39.108Z,99023.13
2022-11-09T13:48:06.606Z,99019.94
2022-11-09T13:50:35.049Z,99019.66
2022-11-09T13:53:03.611Z,99019.41
2022-11-09T13:55:41.510Z,99013.19
2022-11-09T13:58:32.718Z,99012.38
2022-11-09T14:00:59.394Z,99018.69
2022-11-09T14:03:28.968Z,99019.13
2022-11-09T14:06:01.448Z,99016.19
2022-11-09T14:08:32.347Z,99018.44
2022-11-09T14:11:34.071Z,99018.63
2022-11-09T14:14:19.288Z,99012.09
2022-11-09T14:16:45.779Z,99010.16
2022-11-09T14:19:52.505Z,99007.44
2022-11-09T14:22:20.229Z,99005.50
2022-11-09T14:24:47.221Z,99011.75
2022-11-09T14:27:17.689Z,99013.44
2022-11-09T14:29:50.872Z,99016.09
2022-11-09T14:32:27.763Z,99012.56
2022-11-09T14:35:19.389Z,99007.91
2022-11-09T14:37:46.062Z,99010.53
2022-11-09T14:40:22.917Z,99014.94
2022-11-09T14:42:53.321Z,99010.69
2022-11-09T14:45:20.714Z,99022.75
2022-11-09T14:47:50.692Z,99025.00
2022-11-09T14:50:30.628Z,99018.69
2022-11-09T14:52:58.066Z,99019.66
2022-11-09T14:55:25.753Z,99025.06
2022-11-09T14:57:54.605Z,99021.03
2022-11-09T15:00:45.813Z,99018.94
2022-11-09T15:03:30.176Z,99025.19
2022-11-09T15:06:11.465Z,99033.41
2022-11-09T15:08:49.941Z,99031.56
2022-11-09T15:11:16.466Z,99030.13
2022-11-09T15:13:43.243Z,99040.00
2022-11-09T15:16:21.210Z,99038.16
2022-11-09T15:18:54.515Z,99033.13
2022-11-09T15:21:35.989Z,99037.16
2022-11-09T15:24:25.139Z,99034.94
2022-11-09T15:26:53.109Z,99035.22
2022-11-09T15:29:40.905Z,99040.75
2022-11-09T15:32:10.542Z,99040.28
2022-11-09T15:34:44.432Z,99039.16
2022-11-09T15:37:46.695Z,99046.31
2022-11-09T15:40:17.022Z,99045.00
2022-11-09T15:42:46.331Z,99039.50
2022-11-09T15:45:19.394Z,99044.25
2022-11-09T15:47:55.630Z,99043.41
2022-11-09T15:50:25.452Z,99044.03
2022-11-09T15:52:52.217Z,99047.81
2022-11-09T15:55:22.097Z,99045.44
2022-11-09T15:57:50.411Z,99052.25
2022-11-09T16:00:21.012Z,99049.94
2022-11-09T16:02:47.964Z,99042.53
2022-11-09T16:05:15.702Z,99049.81
2022-11-09T16:07:50.140Z,99053.38
2022-11-09T16:10:20.277Z,99048.31
2022-11-09T16:12:47.380Z,99053.63
2022-11-09T16:15:14.114Z,99048.97
2022-11-09T16:17:40.846Z,99057.34
2022-11-09T16:20:07.934Z,99055.38
2022-11-09T16:22:34.765Z,99062.06
2022-11-09T16:25:01.428Z,99064.50
2022-11-09T16:27:49.140Z,99066.19
2022-11-09T16:30:16.106Z,99069.44
2022-11-09T16:32:42.738Z,99074.50
2022-11-09T16:37:58.123Z,99068.81
2022-11-09T16:40:27.654Z,99065.81
2022-11-09T16:42:54.469Z,99068.75
2022-11-09T16:45:21.594Z,99070.69
2022-11-09T16:47:53.107Z,99075.56
2022-11-09T16:50:19.800Z,99074.94
2022-11-09T16:52:46.464Z,99068.97
2022-11-09T16:55:13.116Z,99073.50
2022-11-09T16:57:39.787Z,99086.44
2022-11-09T17:00:07.566Z,99078.97
2022-11-09T17:02:34.834Z,99081.66
2022-11-09T17:05:01.628Z,99083.38
2022-11-09T17:07:28.673Z,99077.31
2022-11-09T17:09:55.506Z,99082.72
2022-11-09T17:12:22.102Z,99077.31
2022-11-09T17:14:48.666Z,99082.03
2022-11-09T17:17:21.261Z,99086.25
2022-11-09T17:19:49.271Z,99083.19
2022-11-09T17:22:16.112Z,99090.47
2022-11-09T17:24:42.748Z,99096.75
2022-11-09T17:27:10.162Z,99100.28
2022-11-09T17:29:38.127Z,99093.50
2022-11-09T17:32:07.115Z,99097.75
2022-11-09T17:34:34.084Z,99098.59
2022-11-09T17:37:05.607Z,99105.88
2022-11-09T17:39:32.931Z,99098.97
2022-11-09T17:41:59.671Z,99107.41
2022-11-09T17:44:26.294Z,99106.91
2022-11-09T17:46:52.921Z,99116.22
2022-11-09T17:49:19.515Z,99113.19
2022-11-09T17:51:46.111Z,99118.13
2022-11-09T17:54:14.649Z,99114.56
2022-11-09T17:56:41.220Z,99111.88
2022-11-09T17:59:07.797Z,99107.34
2022-11-09T18:01:41.163Z,99118.69
2022-11-09T18:04:10.224Z,99112.78
2022-11-09T18:06:37.819Z,99116.22
2022-11-09T18:09:40.205Z,99105.88
2022-11-09T18:11:51.792Z,99112.81
2022-11-09T18:14:18.526Z,99111.00
2022-11-09T18:16:45.351Z,99114.19
2022-11-09T18:19:12.640Z,99111.63
2022-11-09T18:21:39.233Z,99111.34
2022-11-09T18:24:06.207Z,99111.34
2022-11-09T18:26:32.947Z,99107.59
2022-11-09T18:28:59.482Z,99116.59
2022-11-09T18:31:26.115Z,99123.88
2022-11-09T18:33:53.359Z,99121.16
2022-11-09T18:36:21.678Z,99120.88
2022-11-09T18:38:51.198Z,99117.34
2022-11-09T18:41:21.989Z,99123.75
2022-11-09T18:43:49.732Z,99124.44
2022-11-09T18:46:18.890Z,99119.84
2022-11-09T18:48:49.459Z,99123.59
2022-11-09T18:51:16.116Z,99113.94
2022-11-09T18:53:45.146Z,99115.50
2022-11-09T18:56:21.469Z,99116.50
2022-11-09T18:58:49.382Z,99122.75
2022-11-09T19:01:16.567Z,99116.66
2022-11-09T19:03:43.330Z,99122.28
2022-11-09T19:06:15.316Z,99130.03
2022-11-09T19:09:01.007Z,99135.09
2022-11-09T19:11:28.315Z,99132.09
2022-11-09T19:13:55.282Z,99135.44
2022-11-09T19:16:23.108Z,99132.59
2022-11-09T19:18:50.319Z,99140.69
2022-11-09T19:21:38.608Z,99148.97
2022-11-09T19:24:05.932Z,99147.75
2022-11-09T19:26:32.920Z,99143.84
2022-11-09T19:28:59.502Z,99145.56
2022-11-09T19:31:26.191Z,99143.16
2022-11-09T19:33:52.797Z,99146.56
2022-11-09T19:36:30.192Z,99147.41
2022-11-09T19:38:57.967Z,99148.06
2022-11-09T19:41:25.503Z,99154.31
2022-11-09T19:43:54.739Z,99157.88
2022-11-09T19:46:21.934Z,99150.31
2022-11-09T19:48:48.662Z,99152.63
2022-11-09T19:51:16.415Z,99151.25
2022-11-09T19:53:49.146Z,99151.97
2022-11-09T19:56:16.037Z,99155.16
2022-11-09T19:58:42.585Z,99151.44
2022-11-09T20:01:11.556Z,99156.66
2022-11-09T20:03:38.395Z,99151.25
2022-11-09T20:06:07.404Z,99157.34
2022-11-09T20:08:35.393Z,99151.94
2022-11-09T20:11:06.858Z,99151.09
2022-11-09T20:13:33.971Z,99156.00
2022-11-09T20:16:02.913Z,99148.25
2022-11-09T20:18:29.887Z,99144.69
2022-11-09T20:20:56.825Z,99150.59
2022-11-09T20:23:23.356Z,99155.00
2022-11-09T20:25:49.982Z,99149.22
2022-11-09T20:28:16.609Z,99147.88
2022-11-09T20:30:43.249Z,99151.25
2022-11-09T20:33:09.799Z,99145.03
2022-11-09T20:35:36.416Z,99142.31
2022-11-09T20:38:02.983Z,99149.91
2022-11-09T20:40:29.674Z,99137.06
2022-11-09T20:42:56.275Z,99149.06
2022-11-09T20:45:22.812Z,99154.78
2022-11-09T20:48:07.507Z,99150.59
2022-11-09T20:50:36.478Z,99145.53
2022-11-09T20:53:04.032Z,99145.84
2022-11-09T20:55:30.653Z,99141.28
2022-11-09T20:57:57.321Z,99135.72
2022-11-09T21:00:24.725Z,99143.47
2022-11-09T21:02:51.459Z,99141.13
2022-11-09T21:05:18.101Z,99143.31
2022-11-09T21:07:44.648Z,99148.19
2022-11-09T21:10:11.209Z,99139.06
2022-11-09T21:12:37.768Z,99148.34
2022-11-09T21:15:04.792Z,99145.81
2022-11-09T21:17:31.644Z,99151.41
2022-11-09T21:19:58.194Z,99147.69
2022-11-09T21:22:44.717Z,99140.72
2022-11-09T21:25:40.401Z,99136.66
2022-11-09T21:28:33.824Z,99139.00
2022-11-09T21:31:03.412Z,99141.53
2022-11-09T21:33:30.116Z,99139.13
2022-11-09T21:35:57.237Z,99142.66
2022-11-09T21:38:24.122Z,99139.28
2022-11-09T21:40:50.890Z,99141.31
2022-11-09T21:43:17.442Z,99134.38
2022-11-09T21:45:49.322Z,99143.63
2022-11-09T21:48:15.883Z,99137.72
2022-11-09T21:50:42.429Z,99148.84
2022-11-09T21:53:09.070Z,99140.91
2022-11-09T21:55:35.594Z,99137.53
2022-11-09T21:58:02.170Z,99137.84
2022-11-09T22:00:28.700Z,99143.56
2022-11-09T22:02:55.236Z,99137.13
2022-11-09T22:05:23.134Z,99130.75
2022-11-09T22:07:49.906Z,99137.13
2022-11-09T22:10:16.470Z,99138.44
2022-11-09T22:13:01.571Z,99141.78
2022-11-09T22:15:46.938Z,99134.28
2022-11-09T22:18:33.452Z,99143.38
2022-11-09T22:21:00.018Z,99135.47
2022-11-09T22:23:26.602Z,99138.13
2022-11-09T22:25:53.180Z,99137.72
2022-11-09T22:28:19.801Z,99132.81
2022-11-09T22:30:46.373Z,99138.88
2022-11-09T22:33:12.965Z,99129.72
2022-11-09T22:35:39.508Z,99130.03
2022-11-09T22:38:06.052Z,99132.66
2022-11-09T22:40:32.602Z,99134.03
2022-11-09T22:42:59.154Z,99124.72
2022-11-09T22:45:25.793Z,99128.28
2022-11-09T22:47:52.330Z,99131.44
2022-11-09T22:50:18.884Z,99129.91
2022-11-09T22:52:45.404Z,99124.00
2022-11-09T22:55:12.186Z,99128.22
2022-11-09T22:57:38.748Z,99125.69
2022-11-09T23:00:05.879Z,99124.66
2022-11-09T23:02:32.447Z,99132.22
2022-11-09T23:04:59.020Z,99129.47
2022-11-09T23:07:25.643Z,99128.00
2022-11-09T23:09:52.234Z,99132.53
2022-11-09T23:12:18.818Z,99124.72
2022-11-09T23:15:03.683Z,99138.19
2022-11-09T23:17:53.282Z,99131.88
2022-11-09T23:20:21.482Z,99130.34
2022-11-09T23:22:48.200Z,99133.72
2022-11-09T23:25:33.666Z,99133.72
2022-11-09T23:28:00.311Z,99128.47
2022-11-09T23:30:26.893Z,99140.63
2022-11-09T23:32:53.488Z,99136.88
2022-11-09T23:35:20.074Z,99140.09
2022-11-09T23:37:46.736Z,99135.34
2022-11-09T23:40:13.376Z,99136.03
2022-11-09T23:42:39.944Z,99132.66
2022-11-09T23:45:07.656Z,99133.84
2022-11-09T23:47:34.248Z,99129.63
2022-11-09T23:50:00.897Z,99127.94
2022-11-09T23:52:27.521Z,99133.31
2022-11-09T23:54:54.170Z,99128.56
2022-11-09T23:57:20.793Z,99126.03
2022-11-09T23:59:47.347Z,99134.28
